createdAt,value
2023-05-02T00:00:41.208Z,34.48
2023-05-02T00:01:41.256Z,34.46
2023-05-02T00:02:41.414Z,34.51
2023-05-02T00:03:41.364Z,34.44
2023-05-02T00:04:41.358Z,34.43
2023-05-02T00:05:41.383Z,34.44
2023-05-02T00:06:41.489Z,34.44
2023-05-02T00:07:41.440Z,34.44
2023-05-02T00:08:41.468Z,34.41
2023-05-02T00:09:41.531Z,34.43
2023-05-02T00:10:41.582Z,34.38
2023-05-02T00:11:41.594Z,34.41
2023-05-02T00:12:41.667Z,34.43
2023-05-02T00:13:41.704Z,34.41
2023-05-02T00:14:41.738Z,34.42
2023-05-02T00:15:41.777Z,34.35
2023-05-02T00:16:41.853Z,34.41
2023-05-02T00:17:41.941Z,34.42
2023-05-02T00:18:41.942Z,34.46
2023-05-02T00:19:41.993Z,34.43
2023-05-02T00:20:42.024Z,34.44
2023-05-02T00:21:42.070Z,34.41
2023-05-02T00:22:42.111Z,34.43
2023-05-02T00:23:42.169Z,34.40
2023-05-02T00:24:42.219Z,34.42
2023-05-02T00:25:42.266Z,34.40
2023-05-02T00:26:42.318Z,34.38
2023-05-02T00:27:42.356Z,34.41
2023-05-02T00:28:42.431Z,34.43
2023-05-02T00:29:42.453Z,34.46
2023-05-02T00:30:42.518Z,34.38
2023-05-02T00:31:42.697Z,34.41
2023-05-02T00:32:42.614Z,34.40
2023-05-02T00:33:42.639Z,34.41
2023-05-02T00:34:42.685Z,34.39
2023-05-02T00:35:42.768Z,34.41
2023-05-02T00:36:42.783Z,34.41
2023-05-02T00:37:42.829Z,34.39
2023-05-02T00:38:42.879Z,34.38
2023-05-02T00:39:42.949Z,34.36
2023-05-02T00:40:43.012Z,34.41
2023-05-02T00:41:43.033Z,34.39
2023-05-02T00:42:43.084Z,34.41
2023-05-02T00:43:43.135Z,34.38
2023-05-02T00:44:43.206Z,34.39
2023-05-02T00:45:43.256Z,34.41
2023-05-02T00:46:43.385Z,34.38
2023-05-02T00:47:43.396Z,34.39
2023-05-02T00:48:43.412Z,34.38
2023-05-02T00:49:43.465Z,34.39
2023-05-02T00:50:43.557Z,34.38
2023-05-02T00:51:43.584Z,34.38
2023-05-02T00:52:43.630Z,34.36
2023-05-02T00:53:43.712Z,34.36
2023-05-02T00:54:43.752Z,34.41
2023-05-02T00:55:43.826Z,34.39
2023-05-02T00:56:43.869Z,34.35
2023-05-02T00:57:43.905Z,34.36
2023-05-02T00:58:43.968Z,34.43
2023-05-02T00:59:44.030Z,34.39
2023-05-02T01:00:44.123Z,34.39
2023-05-02T01:01:44.206Z,34.39
2023-05-02T01:02:44.252Z,34.36
2023-05-02T01:03:44.388Z,34.36
2023-05-02T01:04:45.210Z,34.39
2023-05-02T01:05:44.352Z,34.33
2023-05-02T01:06:44.414Z,34.38
2023-05-02T01:07:44.447Z,34.38
2023-05-02T01:08:44.498Z,34.36
2023-05-02T01:09:44.561Z,34.35
2023-05-02T01:10:44.605Z,34.36
2023-05-02T01:11:44.661Z,34.36
2023-05-02T01:12:44.719Z,34.38
2023-05-02T01:13:44.775Z,34.36
2023-05-02T01:14:44.856Z,34.36
2023-05-02T01:15:44.952Z,34.35
2023-05-02T01:16:45.058Z,34.40
2023-05-02T01:17:45.066Z,34.32
2023-05-02T01:18:45.071Z,34.36
2023-05-02T01:19:45.115Z,34.34
2023-05-02T01:20:45.165Z,34.34
2023-05-02T01:21:45.223Z,34.34
2023-05-02T01:22:45.311Z,34.38
2023-05-02T01:23:45.327Z,34.36
2023-05-02T01:24:45.381Z,34.35
2023-05-02T01:25:45.445Z,34.35
2023-05-02T01:26:45.502Z,34.36
2023-05-02T01:27:45.556Z,34.38
2023-05-02T01:28:45.605Z,34.38
2023-05-02T01:29:45.657Z,34.36
2023-05-02T01:30:45.732Z,34.39
2023-05-02T01:31:45.824Z,34.33
2023-05-02T01:32:45.867Z,34.38
2023-05-02T01:33:45.879Z,34.31
2023-05-02T01:34:45.925Z,34.30
2023-05-02T01:35:45.975Z,34.36
2023-05-02T01:36:46.033Z,34.34
2023-05-02T01:37:46.082Z,34.33
2023-05-02T01:38:46.130Z,34.35
2023-05-02T01:39:46.188Z,34.34
2023-05-02T01:40:46.258Z,34.31
2023-05-02T01:41:46.302Z,34.31
2023-05-02T01:42:46.357Z,34.36
2023-05-02T01:43:46.416Z,34.33
2023-05-02T01:44:46.493Z,34.30
2023-05-02T01:45:46.539Z,34.32
2023-05-02T01:46:46.716Z,34.34
2023-05-02T01:47:46.675Z,34.32
2023-05-02T01:48:46.760Z,34.36
2023-05-02T01:49:46.750Z,34.33
2023-05-02T01:50:46.803Z,34.32
2023-05-02T01:51:46.856Z,34.30
2023-05-02T01:52:46.910Z,34.34
2023-05-02T01:53:46.966Z,34.31
2023-05-02T01:54:47.027Z,34.31
2023-05-02T01:55:47.083Z,34.31
2023-05-02T01:56:47.129Z,34.36
2023-05-02T01:57:47.180Z,34.32
2023-05-02T01:58:47.249Z,34.32
2023-05-02T01:59:47.292Z,34.35
2023-05-02T02:00:47.425Z,34.31
2023-05-02T02:01:47.404Z,34.30
2023-05-02T02:02:47.502Z,34.31
2023-05-02T02:03:47.620Z,34.31
2023-05-02T02:04:47.725Z,34.33
2023-05-02T02:05:47.633Z,34.33
2023-05-02T02:06:47.786Z,34.30
2023-05-02T02:07:47.750Z,34.30
2023-05-02T02:08:47.789Z,34.31
2023-05-02T02:09:47.848Z,34.32
2023-05-02T02:10:47.898Z,34.32
2023-05-02T02:11:47.970Z,34.31
2023-05-02T02:12:48.007Z,34.31
2023-05-02T02:13:48.065Z,34.30
2023-05-02T02:14:48.168Z,34.30
2023-05-02T02:15:48.188Z,34.32
2023-05-02T02:16:48.315Z,34.36
2023-05-02T02:17:48.333Z,34.32
2023-05-02T02:18:48.359Z,34.28
2023-05-02T02:19:48.420Z,34.27
2023-05-02T02:20:48.510Z,34.27
2023-05-02T02:21:48.553Z,34.33
2023-05-02T02:22:48.603Z,34.29
2023-05-02T02:23:48.644Z,34.31
2023-05-02T02:24:48.717Z,34.33
2023-05-02T02:25:48.751Z,34.31
2023-05-02T02:26:48.804Z,34.30
2023-05-02T02:27:48.856Z,34.31
2023-05-02T02:28:48.906Z,34.32
2023-05-02T02:29:48.988Z,34.25
2023-05-02T02:30:49.077Z,34.31
2023-05-02T02:31:49.057Z,34.28
2023-05-02T02:32:49.154Z,34.27
2023-05-02T02:33:49.185Z,34.28
2023-05-02T02:34:49.297Z,34.32
2023-05-02T02:35:49.289Z,34.32
2023-05-02T02:36:49.470Z,34.28
2023-05-02T02:37:49.399Z,34.32
2023-05-02T02:38:49.452Z,34.31
2023-05-02T02:39:49.529Z,34.30
2023-05-02T02:40:49.565Z,34.28
2023-05-02T02:41:49.656Z,34.27
2023-05-02T02:42:49.688Z,34.27
2023-05-02T02:43:49.716Z,34.32
2023-05-02T02:44:49.770Z,34.32
2023-05-02T02:45:49.882Z,34.31
2023-05-02T02:46:49.978Z,34.26
2023-05-02T02:47:49.995Z,34.25
2023-05-02T02:48:50.003Z,34.28
2023-05-02T02:49:50.067Z,34.30
2023-05-02T02:50:50.102Z,34.28
2023-05-02T02:51:50.156Z,34.31
2023-05-02T02:52:50.239Z,34.30
2023-05-02T02:53:50.274Z,34.25
2023-05-02T02:54:50.305Z,34.26
2023-05-02T02:55:50.367Z,34.25
2023-05-02T02:56:50.423Z,34.25
2023-05-02T02:57:50.470Z,34.22
2023-05-02T02:58:50.550Z,34.27
2023-05-02T02:59:50.582Z,34.30
2023-05-02T03:00:50.638Z,34.27
2023-05-02T03:01:50.789Z,34.22
2023-05-02T03:02:50.777Z,34.25
2023-05-02T03:03:50.893Z,34.30
2023-05-02T03:04:50.878Z,34.25
2023-05-02T03:05:50.928Z,34.30
2023-05-02T03:06:51.074Z,34.28
2023-05-02T03:07:51.041Z,34.22
2023-05-02T03:08:51.119Z,34.21
2023-05-02T03:09:51.156Z,34.23
2023-05-02T03:10:51.210Z,34.25
2023-05-02T03:11:51.243Z,34.25
2023-05-02T03:12:51.271Z,34.24
2023-05-02T03:13:51.301Z,34.28
2023-05-02T03:14:51.339Z,34.27
2023-05-02T03:15:51.380Z,34.30
2023-05-02T03:16:51.391Z,34.28
2023-05-02T03:17:51.489Z,34.31
2023-05-02T03:18:51.430Z,34.23
2023-05-02T03:19:51.468Z,34.29
2023-05-02T03:20:51.497Z,34.23
2023-05-02T03:21:51.507Z,34.28
2023-05-02T03:22:51.531Z,34.23
2023-05-02T03:23:51.561Z,34.24
2023-05-02T03:24:51.618Z,34.21
2023-05-02T03:25:51.612Z,34.21
2023-05-02T03:26:51.645Z,34.23
2023-05-02T03:27:51.667Z,34.19
2023-05-02T03:28:51.689Z,34.27
2023-05-02T03:29:51.719Z,34.24
2023-05-02T03:30:51.778Z,34.24
2023-05-02T03:31:51.794Z,34.25
2023-05-02T03:32:51.855Z,34.23
2023-05-02T03:33:51.824Z,34.24
2023-05-02T03:34:51.852Z,34.28
2023-05-02T03:35:51.942Z,34.20
2023-05-02T03:36:51.930Z,34.27
2023-05-02T03:37:51.945Z,34.20
2023-05-02T03:38:51.959Z,34.26
2023-05-02T03:39:51.985Z,34.20
2023-05-02T03:40:52.057Z,34.23
2023-05-02T03:41:52.037Z,34.23
2023-05-02T03:42:52.069Z,34.25
2023-05-02T03:43:52.093Z,34.25
2023-05-02T03:44:52.109Z,34.27
2023-05-02T03:45:52.141Z,34.23
2023-05-02T03:46:52.294Z,34.23
2023-05-02T03:47:52.258Z,34.25
2023-05-02T03:48:52.224Z,34.25
2023-05-02T03:49:52.237Z,34.28
2023-05-02T03:50:52.265Z,34.23
2023-05-02T03:51:52.282Z,34.25
2023-05-02T03:52:52.308Z,34.22
2023-05-02T03:53:52.330Z,34.20
2023-05-02T03:54:52.355Z,34.21
2023-05-02T03:55:52.378Z,34.21
2023-05-02T03:56:52.530Z,34.22
2023-05-02T03:57:52.434Z,34.22
2023-05-02T03:58:52.459Z,34.24
2023-05-02T03:59:52.482Z,34.19
2023-05-02T04:00:52.511Z,34.20
2023-05-02T04:01:52.542Z,34.23
2023-05-02T04:02:52.836Z,34.20
2023-05-02T04:03:52.727Z,34.24
2023-05-02T04:04:52.635Z,34.19
2023-05-02T04:05:52.653Z,34.21
2023-05-02T04:06:52.788Z,34.20
2023-05-02T04:07:52.708Z,34.22
2023-05-02T04:08:53.732Z,34.22
2023-05-02T04:09:52.764Z,34.25
2023-05-02T04:10:52.800Z,34.22
2023-05-02T04:11:52.845Z,34.21
2023-05-02T04:12:52.886Z,34.22
2023-05-02T04:13:53.510Z,34.21
2023-05-02T04:14:52.939Z,34.16
2023-05-02T04:15:52.958Z,34.23
2023-05-02T04:16:53.102Z,34.20
2023-05-02T04:17:53.050Z,34.20
2023-05-02T04:18:53.038Z,34.19
2023-05-02T04:19:53.065Z,34.21
2023-05-02T04:20:53.089Z,34.23
2023-05-02T04:21:53.121Z,34.21
2023-05-02T04:22:53.240Z,34.18
2023-05-02T04:23:53.182Z,34.21
2023-05-02T04:24:53.208Z,34.20
2023-05-02T04:25:53.266Z,34.20
2023-05-02T04:26:53.324Z,34.16
2023-05-02T04:27:53.384Z,34.18
2023-05-02T04:28:53.472Z,34.20
2023-05-02T04:29:53.502Z,34.23
2023-05-02T04:30:53.598Z,34.20
2023-05-02T04:31:53.610Z,34.21
2023-05-02T04:32:53.715Z,34.21
2023-05-02T04:33:53.725Z,34.24
2023-05-02T04:34:53.780Z,34.20
2023-05-02T04:35:53.831Z,34.20
2023-05-02T04:36:53.891Z,34.21
2023-05-02T04:37:53.951Z,34.19
2023-05-02T04:38:54.015Z,34.23
2023-05-02T04:39:54.076Z,34.15
2023-05-02T04:40:54.134Z,34.18
2023-05-02T04:41:54.227Z,34.18
2023-05-02T04:42:54.259Z,34.15
2023-05-02T04:43:54.313Z,34.24
2023-05-02T04:44:54.405Z,34.14
2023-05-02T04:45:54.476Z,34.21
2023-05-02T04:46:54.580Z,34.19
2023-05-02T04:47:54.589Z,34.20
2023-05-02T04:48:54.614Z,34.21
2023-05-02T04:49:54.664Z,34.19
2023-05-02T04:50:54.729Z,34.16
2023-05-02T04:51:54.781Z,34.20
2023-05-02T04:52:54.853Z,34.18
2023-05-02T04:53:54.894Z,34.18
2023-05-02T04:54:54.947Z,34.18
2023-05-02T04:55:54.964Z,34.23
2023-05-02T04:56:54.985Z,34.18
2023-05-02T04:57:55.025Z,34.16
2023-05-02T04:58:55.035Z,34.20
2023-05-02T04:59:55.062Z,34.14
2023-05-02T05:00:55.142Z,34.20
2023-05-02T05:01:55.273Z,34.20
2023-05-02T05:02:55.219Z,34.18
2023-05-02T05:03:55.252Z,34.16
2023-05-02T05:04:55.204Z,34.19
2023-05-02T05:05:55.246Z,34.15
2023-05-02T05:06:55.363Z,34.21
2023-05-02T05:07:55.288Z,34.19
2023-05-02T05:08:55.321Z,34.18
2023-05-02T05:09:55.356Z,34.19
2023-05-02T05:10:55.389Z,34.15
2023-05-02T05:11:55.423Z,34.18
2023-05-02T05:12:55.446Z,34.16
2023-05-02T05:13:55.478Z,34.21
2023-05-02T05:14:55.521Z,34.17
2023-05-02T05:15:55.602Z,34.20
2023-05-02T05:16:55.596Z,34.28
2023-05-02T05:17:55.651Z,34.25
2023-05-02T05:18:55.654Z,34.27
2023-05-02T05:19:55.810Z,34.29
2023-05-02T05:20:55.726Z,34.28
2023-05-02T05:21:55.764Z,34.35
2023-05-02T05:22:55.794Z,34.35
2023-05-02T05:23:55.850Z,34.48
2023-05-02T05:24:56.359Z,34.56
2023-05-02T05:25:55.913Z,34.66
2023-05-02T05:26:55.967Z,34.67
2023-05-02T05:27:56.021Z,34.75
2023-05-02T05:28:56.072Z,34.74
2023-05-02T05:29:56.151Z,34.79
2023-05-02T05:30:56.212Z,34.79
2023-05-02T05:31:56.308Z,34.84
2023-05-02T05:32:56.883Z,34.88
2023-05-02T05:33:56.447Z,34.85
2023-05-02T05:34:56.823Z,34.87
2023-05-02T05:35:56.513Z,34.92
2023-05-02T05:36:56.589Z,34.90
2023-05-02T05:37:56.831Z,34.92
2023-05-02T05:38:56.705Z,34.93
2023-05-02T05:39:56.779Z,35.02
2023-05-02T05:40:56.836Z,35.03
2023-05-02T05:41:56.895Z,35.06
2023-05-02T05:42:57.318Z,35.11
2023-05-02T05:43:57.020Z,35.12
2023-05-02T05:44:57.086Z,35.50
2023-05-02T05:45:57.180Z,35.47
2023-05-02T05:46:57.287Z,35.55
2023-05-02T05:47:57.375Z,35.39
2023-05-02T05:48:57.370Z,35.54
2023-05-02T05:49:58.079Z,35.72
2023-05-02T05:50:57.525Z,35.77
2023-05-02T05:51:57.543Z,35.88
2023-05-02T05:52:57.600Z,35.90
2023-05-02T05:53:57.661Z,36.12
2023-05-02T05:54:57.822Z,36.29
2023-05-02T05:55:57.801Z,36.94
2023-05-02T05:56:57.889Z,37.23
2023-05-02T05:57:58.353Z,37.91
2023-05-02T05:58:57.856Z,37.97
2023-05-02T05:59:58.173Z,37.80
2023-05-02T06:00:57.923Z,37.94
2023-05-02T06:01:57.949Z,38.02
2023-05-02T06:02:58.481Z,38.02
2023-05-02T06:03:58.005Z,38.03
2023-05-02T06:04:57.996Z,38.05
2023-05-02T06:05:57.916Z,38.11
2023-05-02T06:06:58.017Z,38.47
2023-05-02T06:07:58.384Z,38.27
2023-05-02T06:08:57.923Z,38.28
2023-05-02T06:09:58.197Z,38.26
2023-05-02T06:10:58.949Z,38.40
2023-05-02T06:11:57.966Z,38.30
2023-05-02T06:12:59.348Z,38.26
2023-05-02T06:13:58.038Z,38.27
2023-05-02T06:14:58.368Z,38.30
2023-05-02T06:15:58.128Z,38.25
2023-05-02T06:16:58.173Z,38.25
2023-05-02T06:17:58.512Z,38.28
2023-05-02T06:18:58.253Z,38.31
2023-05-02T06:19:58.625Z,38.29
2023-05-02T06:20:58.428Z,38.26
2023-05-02T06:21:58.473Z,38.27
2023-05-02T06:22:58.872Z,38.23
2023-05-02T06:23:58.598Z,38.20
2023-05-02T06:24:58.600Z,38.23
2023-05-02T06:25:58.679Z,38.16
2023-05-02T06:26:58.864Z,38.18
2023-05-02T06:27:58.784Z,38.12
2023-05-02T06:28:58.829Z,38.08
2023-05-02T06:29:59.589Z,38.12
2023-05-02T06:30:58.941Z,38.06
2023-05-02T06:31:59.059Z,38.00
2023-05-02T06:32:59.099Z,37.97
2023-05-02T06:33:59.090Z,37.96
2023-05-02T06:34:59.345Z,37.98
2023-05-02T06:36:01.424Z,37.98
2023-05-02T06:36:59.948Z,37.93
2023-05-02T06:37:59.131Z,37.83
2023-05-02T06:38:59.122Z,37.81
2023-05-02T06:39:59.555Z,37.76
2023-05-02T06:40:59.098Z,37.73
2023-05-02T06:41:59.079Z,37.72
2023-05-02T06:42:59.350Z,37.75
2023-05-02T06:43:59.024Z,37.75
2023-05-02T06:44:59.033Z,37.66
2023-05-02T06:45:59.067Z,37.66
2023-05-02T06:46:58.969Z,37.69
2023-05-02T06:47:59.408Z,37.68
2023-05-02T06:48:58.946Z,37.57
2023-05-02T06:49:59.573Z,37.56
2023-05-02T06:50:58.970Z,37.58
2023-05-02T06:51:58.996Z,37.58
2023-05-02T06:52:59.040Z,37.53
2023-05-02T06:53:59.347Z,37.48
2023-05-02T06:54:59.084Z,37.45
2023-05-02T06:55:59.102Z,37.43
2023-05-02T06:56:59.125Z,37.41
2023-05-02T06:57:59.161Z,37.41
2023-05-02T06:58:59.346Z,37.41
2023-05-02T06:59:59.423Z,37.40
2023-05-02T07:00:59.297Z,37.36
2023-05-02T07:01:59.302Z,37.32
2023-05-02T07:02:59.452Z,37.35
2023-05-02T07:03:59.909Z,37.32
2023-05-02T07:04:59.846Z,37.31
2023-05-02T07:05:59.528Z,37.30
2023-05-02T07:06:59.451Z,37.23
2023-05-02T07:07:59.506Z,37.26
2023-05-02T07:08:59.570Z,37.19
2023-05-02T07:10:00.080Z,36.95
2023-05-02T07:10:59.588Z,36.98
2023-05-02T07:11:59.608Z,36.80
2023-05-02T07:12:59.852Z,36.79
2023-05-02T07:13:59.637Z,36.62
2023-05-02T07:14:59.853Z,36.63
2023-05-02T07:15:59.657Z,36.57
2023-05-02T07:16:59.751Z,36.43
2023-05-02T07:17:59.888Z,36.50
2023-05-02T07:18:59.602Z,36.43
2023-05-02T07:19:59.715Z,36.47
2023-05-02T07:20:59.584Z,36.41
2023-05-02T07:21:59.557Z,36.31
2023-05-02T07:22:59.877Z,36.40
2023-05-02T07:23:59.526Z,36.39
2023-05-02T07:24:59.979Z,36.42
2023-05-02T07:25:59.501Z,36.42
2023-05-02T07:26:59.531Z,36.49
2023-05-02T07:27:59.883Z,36.38
2023-05-02T07:28:59.531Z,36.38
2023-05-02T07:30:00.100Z,36.42
2023-05-02T07:30:59.499Z,36.36
2023-05-02T07:31:59.529Z,36.60
2023-05-02T07:32:59.789Z,36.52
2023-05-02T07:33:59.565Z,36.43
2023-05-02T07:34:59.887Z,36.54
2023-05-02T07:35:59.732Z,36.49
2023-05-02T07:36:59.902Z,36.52
2023-05-02T07:37:59.756Z,36.53
2023-05-02T07:38:59.817Z,36.48
2023-05-02T07:40:01.217Z,36.43
2023-05-02T07:41:00.095Z,36.31
2023-05-02T07:42:00.387Z,36.35
2023-05-02T07:43:00.907Z,36.36
2023-05-02T07:44:00.960Z,36.39
2023-05-02T07:45:00.404Z,36.35
2023-05-02T07:46:00.291Z,36.41
2023-05-02T07:47:00.240Z,36.25
2023-05-02T07:48:00.410Z,36.55
2023-05-02T07:49:01.267Z,36.48
2023-05-02T07:50:00.833Z,36.43
2023-05-02T07:51:00.323Z,36.39
2023-05-02T07:52:00.282Z,36.54
2023-05-02T07:53:00.391Z,36.44
2023-05-02T07:54:00.252Z,36.44
2023-05-02T07:55:00.273Z,36.55
2023-05-02T07:56:00.239Z,36.63
2023-05-02T07:57:00.258Z,36.68
2023-05-02T07:58:00.380Z,36.73
2023-05-02T07:59:00.195Z,36.69
2023-05-02T08:00:00.947Z,36.67
2023-05-02T08:01:00.168Z,36.67
2023-05-02T08:02:00.178Z,36.66
2023-05-02T08:03:00.249Z,36.80
2023-05-02T08:04:00.595Z,36.72
2023-05-02T08:05:00.406Z,36.85
2023-05-02T08:06:00.234Z,36.85
2023-05-02T08:07:00.231Z,36.90
2023-05-02T08:08:00.374Z,36.88
2023-05-02T08:09:00.227Z,36.90
2023-05-02T08:10:00.659Z,36.80
2023-05-02T08:11:00.256Z,36.88
2023-05-02T08:12:00.302Z,36.88
2023-05-02T08:13:00.371Z,36.83
2023-05-02T08:14:00.981Z,36.80
2023-05-02T08:15:00.898Z,36.83
2023-05-02T08:16:00.566Z,36.76
2023-05-02T08:17:00.557Z,36.72
2023-05-02T08:18:00.627Z,36.66
2023-05-02T08:19:00.907Z,36.69
2023-05-02T08:20:01.229Z,36.69
2023-05-02T08:21:00.717Z,36.67
2023-05-02T08:22:00.748Z,36.70
2023-05-02T08:23:00.840Z,36.70
2023-05-02T08:24:00.877Z,36.75
2023-05-02T08:25:01.467Z,36.70
2023-05-02T08:26:00.932Z,36.67
2023-05-02T08:27:00.970Z,36.65
2023-05-02T08:28:01.383Z,36.61
2023-05-02T08:29:01.072Z,36.63
2023-05-02T08:30:01.471Z,36.65
2023-05-02T08:31:01.109Z,36.62
2023-05-02T08:32:02.201Z,36.59
2023-05-02T08:33:01.519Z,36.67
2023-05-02T08:34:01.225Z,36.67
2023-05-02T08:35:01.277Z,36.55
2023-05-02T08:36:01.314Z,36.57
2023-05-02T08:37:01.319Z,36.57
2023-05-02T08:38:01.904Z,36.57
2023-05-02T08:39:01.488Z,36.61
2023-05-02T08:40:01.867Z,36.65
2023-05-02T08:41:01.893Z,36.63
2023-05-02T08:42:01.531Z,36.55
2023-05-02T08:43:01.536Z,36.49
2023-05-02T08:44:01.602Z,36.47
2023-05-02T08:45:01.917Z,36.43
2023-05-02T08:46:01.626Z,36.51
2023-05-02T08:47:01.714Z,36.56
2023-05-02T08:48:01.735Z,36.58
2023-05-02T08:49:01.891Z,36.56
2023-05-02T08:50:02.192Z,36.51
2023-05-02T08:51:01.890Z,36.50
2023-05-02T08:52:01.848Z,36.49
2023-05-02T08:53:01.813Z,36.47
2023-05-02T08:54:01.839Z,36.52
2023-05-02T08:55:02.283Z,36.49
2023-05-02T08:56:02.397Z,36.45
2023-05-02T08:57:01.954Z,36.46
2023-05-02T08:58:01.972Z,36.41
2023-05-02T08:59:02.427Z,36.34
2023-05-02T09:00:01.990Z,36.34
2023-05-02T09:01:02.098Z,36.36
2023-05-02T09:02:02.045Z,36.38
2023-05-02T09:03:02.488Z,36.34
2023-05-02T09:04:02.079Z,36.70
2023-05-02T09:05:02.462Z,36.58
2023-05-02T09:06:02.444Z,36.62
2023-05-02T09:07:02.017Z,36.58
2023-05-02T09:08:02.398Z,36.62
2023-05-02T09:09:01.993Z,36.66
2023-05-02T09:10:02.015Z,36.64
2023-05-02T09:11:02.428Z,36.60
2023-05-02T09:12:01.942Z,36.56
2023-05-02T09:13:01.925Z,36.50
2023-05-02T09:14:01.925Z,36.50
2023-05-02T09:15:01.924Z,36.48
2023-05-02T09:16:01.878Z,36.57
2023-05-02T09:17:02.099Z,36.59
2023-05-02T09:18:01.881Z,36.56
2023-05-02T09:19:01.935Z,36.63
2023-05-02T09:20:01.929Z,36.51
2023-05-02T09:21:01.898Z,36.47
2023-05-02T09:22:01.781Z,36.50
2023-05-02T09:23:01.824Z,36.42
2023-05-02T09:24:01.960Z,36.47
2023-05-02T09:25:01.996Z,36.47
2023-05-02T09:26:01.939Z,36.42
2023-05-02T09:27:01.836Z,36.41
2023-05-02T09:28:01.925Z,36.47
2023-05-02T09:29:01.887Z,36.63
2023-05-02T09:30:01.885Z,36.83
2023-05-02T09:31:02.056Z,36.56
2023-05-02T09:32:01.937Z,36.41
2023-05-02T09:33:02.018Z,36.33
2023-05-02T09:34:01.880Z,36.25
2023-05-02T09:35:02.064Z,36.22
2023-05-02T09:36:01.945Z,36.24
2023-05-02T09:37:01.916Z,36.05
2023-05-02T09:38:01.887Z,36.12
2023-05-02T09:39:02.012Z,36.03
2023-05-02T09:40:01.818Z,35.88
2023-05-02T09:41:01.822Z,35.82
2023-05-02T09:42:01.846Z,35.72
2023-05-02T09:43:01.917Z,35.73
2023-05-02T09:44:01.844Z,35.64
2023-05-02T09:45:01.997Z,35.47
2023-05-02T09:46:01.889Z,35.37
2023-05-02T09:47:01.832Z,35.39
2023-05-02T09:48:01.908Z,35.37
2023-05-02T09:49:01.887Z,35.27
2023-05-02T09:50:01.875Z,35.30
2023-05-02T09:51:01.903Z,35.27
2023-05-02T09:52:01.910Z,35.19
2023-05-02T09:53:02.446Z,35.15
2023-05-02T09:54:01.951Z,35.12
2023-05-02T09:55:02.304Z,35.07
2023-05-02T09:56:02.005Z,35.06
2023-05-02T09:57:02.018Z,34.94
2023-05-02T09:58:02.129Z,34.87
2023-05-02T09:59:02.083Z,34.82
2023-05-02T10:00:02.113Z,34.71
2023-05-02T10:01:02.463Z,34.67
2023-05-02T10:02:02.529Z,34.55
2023-05-02T10:03:02.476Z,34.52
2023-05-02T10:04:02.290Z,34.48
2023-05-02T10:05:02.663Z,34.43
2023-05-02T10:06:02.444Z,34.42
2023-05-02T10:07:02.373Z,34.36
2023-05-02T10:08:02.480Z,34.30
2023-05-02T10:09:02.418Z,34.24
2023-05-02T10:10:02.438Z,34.26
2023-05-02T10:11:02.476Z,34.17
2023-05-02T10:12:02.511Z,33.92
2023-05-02T10:13:02.990Z,33.95
2023-05-02T10:14:02.937Z,33.91
2023-05-02T10:15:02.959Z,33.81
2023-05-02T10:16:02.838Z,33.71
2023-05-02T10:17:02.674Z,33.65
2023-05-02T10:18:02.981Z,33.48
2023-05-02T10:19:02.954Z,33.52
2023-05-02T10:20:02.953Z,33.55
2023-05-02T10:21:02.981Z,33.48
2023-05-02T10:22:02.655Z,33.45
2023-05-02T10:23:02.946Z,33.46
2023-05-02T10:24:02.628Z,33.30
2023-05-02T10:25:03.185Z,33.27
2023-05-02T10:26:02.700Z,33.22
2023-05-02T10:27:02.754Z,33.07
2023-05-02T10:28:02.822Z,33.11
2023-05-02T10:29:02.975Z,33.20
2023-05-02T10:30:03.353Z,33.02
2023-05-02T10:31:03.480Z,32.99
2023-05-02T10:32:03.093Z,32.88
2023-05-02T10:33:02.987Z,32.91
2023-05-02T10:34:02.957Z,32.90
2023-05-02T10:35:03.169Z,32.96
2023-05-02T10:36:03.427Z,32.94
2023-05-02T10:37:02.953Z,32.96
2023-05-02T10:38:02.917Z,32.90
2023-05-02T10:39:02.893Z,32.82
2023-05-02T10:40:02.899Z,32.72
2023-05-02T10:41:06.152Z,32.63
2023-05-02T10:42:02.864Z,32.57
2023-05-02T10:43:02.853Z,32.52
2023-05-02T10:44:02.831Z,32.52
2023-05-02T10:45:03.109Z,32.52
2023-05-02T10:46:02.954Z,32.52
2023-05-02T10:47:03.309Z,32.59
2023-05-02T10:48:02.841Z,32.64
2023-05-02T10:49:02.943Z,32.67
2023-05-02T10:50:02.875Z,32.62
2023-05-02T10:51:01.933Z,32.67
2023-05-02T10:52:02.688Z,32.73
2023-05-02T10:53:02.719Z,32.64
2023-05-02T10:54:02.929Z,32.71
2023-05-02T10:55:02.751Z,32.77
2023-05-02T10:56:02.954Z,32.78
2023-05-02T10:57:02.630Z,32.75
2023-05-02T10:58:02.618Z,32.86
2023-05-02T10:59:02.586Z,32.93
2023-05-02T11:00:02.604Z,32.93
2023-05-02T11:01:03.006Z,33.03
2023-05-02T11:02:05.305Z,33.00
2023-05-02T11:03:02.945Z,33.07
2023-05-02T11:04:02.641Z,33.07
2023-05-02T11:05:05.030Z,33.08
2023-05-02T11:06:06.150Z,33.14
2023-05-02T11:07:02.598Z,33.15
2023-05-02T11:08:02.573Z,33.16
2023-05-02T11:09:02.585Z,33.18
2023-05-02T11:10:02.537Z,33.19
2023-05-02T11:11:02.938Z,33.47
2023-05-02T11:12:02.520Z,33.64
2023-05-02T11:13:02.496Z,34.46
2023-05-02T11:14:02.944Z,34.81
2023-05-02T11:15:03.428Z,35.30
2023-05-02T11:16:02.497Z,35.74
2023-05-02T11:17:02.442Z,36.13
2023-05-02T11:18:02.606Z,36.07
2023-05-02T11:19:02.447Z,36.17
2023-05-02T11:20:02.386Z,36.29
2023-05-02T11:21:02.443Z,36.46
2023-05-02T11:22:02.363Z,36.52
2023-05-02T11:23:02.356Z,36.49
2023-05-02T11:24:02.443Z,36.47
2023-05-02T11:25:02.852Z,36.54
2023-05-02T11:26:02.465Z,36.42
2023-05-02T11:27:02.309Z,36.44
2023-05-02T11:28:02.309Z,36.65
2023-05-02T11:29:02.443Z,36.70
2023-05-02T11:30:02.299Z,36.63
2023-05-02T11:31:02.464Z,36.62
2023-05-02T11:32:02.395Z,36.55
2023-05-02T11:33:02.374Z,36.30
2023-05-02T11:34:02.459Z,36.26
2023-05-02T11:35:02.732Z,36.27
2023-05-02T11:36:02.452Z,36.36
2023-05-02T11:37:02.410Z,36.40
2023-05-02T11:38:02.427Z,36.36
2023-05-02T11:39:02.467Z,36.51
2023-05-02T11:40:02.620Z,36.24
2023-05-02T11:41:02.464Z,36.37
2023-05-02T11:42:02.437Z,36.39
2023-05-02T11:43:02.427Z,36.62
2023-05-02T11:44:02.460Z,36.16
2023-05-02T11:45:02.710Z,36.06
2023-05-02T11:46:02.731Z,35.97
2023-05-02T11:47:02.444Z,35.96
2023-05-02T11:48:02.459Z,36.03
2023-05-02T11:49:02.461Z,36.12
2023-05-02T11:50:02.468Z,36.07
2023-05-02T11:51:02.466Z,35.90
2023-05-02T11:52:02.721Z,35.86
2023-05-02T11:53:02.952Z,35.85
2023-05-02T11:54:02.586Z,35.94
2023-05-02T11:55:02.856Z,36.15
2023-05-02T11:56:02.963Z,36.17
2023-05-02T11:57:02.762Z,36.11
2023-05-02T11:58:02.793Z,36.24
2023-05-02T11:59:02.851Z,36.21
2023-05-02T12:00:02.882Z,36.14
2023-05-02T12:01:03.064Z,36.16
2023-05-02T12:02:02.976Z,36.20
2023-05-02T12:03:03.077Z,36.15
2023-05-02T12:04:04.232Z,36.23
2023-05-02T12:05:03.430Z,36.49
2023-05-02T12:06:03.291Z,36.47
2023-05-02T12:07:03.213Z,36.44
2023-05-02T12:08:03.462Z,36.47
2023-05-02T12:09:04.240Z,36.47
2023-05-02T12:10:03.392Z,36.51
2023-05-02T12:11:03.462Z,36.54
2023-05-02T12:12:03.437Z,36.60
2023-05-02T12:13:03.752Z,36.69
2023-05-02T12:14:03.756Z,36.71
2023-05-02T12:15:03.753Z,36.77
2023-05-02T12:16:03.993Z,36.73
2023-05-02T12:17:04.573Z,36.80
2023-05-02T12:18:03.777Z,36.84
2023-05-02T12:19:03.988Z,36.89
2023-05-02T12:20:03.767Z,36.91
2023-05-02T12:21:07.005Z,36.91
2023-05-02T12:22:04.491Z,36.94
2023-05-02T12:23:04.347Z,36.94
2023-05-02T12:24:04.321Z,37.19
2023-05-02T12:25:04.771Z,37.04
2023-05-02T12:26:03.977Z,36.96
2023-05-02T12:27:03.703Z,36.97
2023-05-02T12:28:03.727Z,37.04
2023-05-02T12:29:04.304Z,36.95
2023-05-02T12:30:04.574Z,36.90
2023-05-02T12:31:04.288Z,36.90
2023-05-02T12:32:04.309Z,36.97
2023-05-02T12:33:04.375Z,36.92
2023-05-02T12:34:03.880Z,36.93
2023-05-02T12:35:04.037Z,36.94
2023-05-02T12:36:03.973Z,36.91
2023-05-02T12:37:03.971Z,36.95
2023-05-02T12:38:04.004Z,36.95
2023-05-02T12:39:04.186Z,37.00
2023-05-02T12:40:04.692Z,36.97
2023-05-02T12:41:04.090Z,37.02
2023-05-02T12:42:04.192Z,36.98
2023-05-02T12:43:04.324Z,36.92
2023-05-02T12:44:04.531Z,36.83
2023-05-02T12:45:04.297Z,36.78
2023-05-02T12:46:04.253Z,36.75
2023-05-02T12:47:04.300Z,36.78
2023-05-02T12:48:04.317Z,36.74
2023-05-02T12:49:04.482Z,36.72
2023-05-02T12:50:04.726Z,36.78
2023-05-02T12:51:04.364Z,36.81
2023-05-02T12:52:04.390Z,36.81
2023-05-02T12:53:04.430Z,36.83